Time;durP1;ratioP1;P1;durP2;ratioP2;P2;SDS_P1;SDS_P2;PMS_P1;PMS_P2;Temp;Humidity;BMP_temperature;BMP_pressure;BME280_temperature;BME280_humidity;BME280_pressure;Samples;Min_cycle;Max_cycle;Signal;HPM_P1;HPM_P2
2022/05/06 00:01:51;;;;;;;;;;;21.70;40.50;;;;;;5047976;28;19941;-75
2022/05/06 00:04:16;;;;;;;;;;;21.70;40.50;;;;;;5044308;28;20313;-76
2022/05/06 00:06:42;;;;;;;;;;;21.70;40.60;;;;;;5012950;28;19910;-76
2022/05/06 00:09:07;;;;;;;;;;;21.70;40.40;;;;;;5057487;28;19909;-76
2022/05/06 00:11:33;;;;;;;;;;;21.70;40.40;;;;;;5064365;28;19917;-75
2022/05/06 00:13:58;;;;;;;;;;;21.70;40.40;;;;;;5047596;28;20253;-75
2022/05/06 00:16:24;;;;;;;;;;;21.70;40.60;;;;;;5047404;28;19963;-76
2022/05/06 00:18:50;;;;;;;;;;;21.70;40.50;;;;;;5032599;28;20054;-76
2022/05/06 00:21:15;;;;;;;;;;;21.70;40.50;;;;;;5047423;28;19924;-76
2022/05/06 00:23:41;;;;;;;;;;;21.70;40.60;;;;;;5047953;28;19915;-76
2022/05/06 00:26:06;;;;;;;;;;;21.70;40.50;;;;;;5063783;28;19917;-76
2022/05/06 00:28:32;;;;;;;;;;;21.70;40.60;;;;;;5032313;28;20376;-76
2022/05/06 00:30:57;;;;;;;;;;;21.70;40.60;;;;;;5063801;28;19913;-76
2022/05/06 00:33:26;;;;;;;;;;;21.70;40.50;;;;;;5064251;28;19913;-75
2022/05/06 00:35:53;;;;;;;;;;;21.70;40.60;;;;;;5047033;28;20448;-76
2022/05/06 00:38:18;;;;;;;;;;;21.70;40.50;;;;;;5064084;28;19915;-75
2022/05/06 00:40:44;;;;;;;;;;;21.70;40.60;;;;;;5032197;28;19999;-76
2022/05/06 00:43:10;;;;;;;;;;;21.70;40.60;;;;;;5063084;28;19913;-76
2022/05/06 00:46:03;;;;;;;;;;;21.70;40.60;;;;;;5063854;28;19917;-76
2022/05/06 00:48:30;;;;;;;;;;;21.70;40.60;;;;;;5024867;28;20485;-75
2022/05/06 00:50:57;;;;;;;;;;;21.70;40.60;;;;;;4994530;28;19916;-76
2022/05/06 00:53:22;;;;;;;;;;;21.70;40.60;;;;;;4994724;28;19910;-76
2022/05/06 00:55:49;;;;;;;;;;;21.70;40.60;;;;;;5010579;28;20000;-75
2022/05/06 00:58:14;;;;;;;;;;;21.70;40.50;;;;;;5010592;28;19996;-76
2022/05/06 01:00:40;;;;;;;;;;;21.70;40.60;;;;;;5010764;28;19955;-76
2022/05/06 01:03:05;;;;;;;;;;;21.70;40.60;;;;;;5010836;28;19910;-76
2022/05/06 01:05:31;;;;;;;;;;;21.70;40.60;;;;;;5043444;28;19922;-75
2022/05/06 01:07:58;;;;;;;;;;;21.60;40.50;;;;;;5014144;28;19921;-76
2022/05/06 01:10:23;;;;;;;;;;;21.60;40.50;;;;;;5046920;28;19978;-76
2022/05/06 01:12:49;;;;;;;;;;;21.60;40.60;;;;;;5046670;28;19917;-76
2022/05/06 01:15:18;;;;;;;;;;;21.60;40.50;;;;;;5032240;28;19913;-76
2022/05/06 01:17:44;;;;;;;;;;;21.60;40.60;;;;;;5030292;28;19947;-76
2022/05/06 01:20:11;;;;;;;;;;;21.60;40.60;;;;;;5063733;28;19909;-76
2022/05/06 01:22:38;;;;;;;;;;;21.60;40.50;;;;;;5063429;28;20004;-76
2022/05/06 01:25:03;;;;;;;;;;;21.60;40.50;;;;;;5047022;28;19909;-76
2022/05/06 01:27:29;;;;;;;;;;;21.60;40.50;;;;;;5046096;28;20329;-76
2022/05/06 01:29:54;;;;;;;;;;;21.60;40.60;;;;;;5010517;28;19909;-75
2022/05/06 01:32:20;;;;;;;;;;;21.60;40.60;;;;;;5010802;28;19960;-76
2022/05/06 01:34:45;;;;;;;;;;;21.60;40.60;;;;;;5010807;28;20337;-76
2022/05/06 01:37:11;;;;;;;;;;;21.60;40.60;;;;;;5010886;28;20262;-76
2022/05/06 01:39:36;;;;;;;;;;;21.60;40.60;;;;;;5027438;28;19909;-76
2022/05/06 01:42:04;;;;;;;;;;;21.70;40.70;;;;;;5063404;28;19971;-75
2022/05/06 01:44:30;;;;;;;;;;;21.60;40.60;;;;;;5031528;28;19913;-76
2022/05/06 01:46:57;;;;;;;;;;;21.60;40.60;;;;;;5063698;28;19913;-77
2022/05/06 01:49:23;;;;;;;;;;;21.60;40.50;;;;;;5063682;28;19945;-76
2022/05/06 01:51:49;;;;;;;;;;;21.60;40.60;;;;;;5046729;28;19916;-76
2022/05/06 01:54:17;;;;;;;;;;;21.60;40.60;;;;;;5047106;28;20107;-76
2022/05/06 01:56:43;;;;;;;;;;;21.60;40.60;;;;;;5050237;28;19916;-76
2022/05/06 01:59:08;;;;;;;;;;;21.60;40.70;;;;;;5060797;28;20238;-76
2022/05/06 02:01:34;;;;;;;;;;;21.60;40.70;;;;;;5013933;28;20342;-75
2022/05/06 02:06:44;;;;;;;;;;;21.60;40.50;;;;;;5035200;28;19920;-76
2022/05/06 02:09:09;;;;;;;;;;;21.60;40.60;;;;;;5048165;28;19912;-76
2022/05/06 02:11:35;;;;;;;;;;;21.60;40.50;;;;;;5070074;28;19909;-76
2022/05/06 02:14:00;;;;;;;;;;;21.60;40.60;;;;;;5070359;28;20487;-77
2022/05/06 02:16:27;;;;;;;;;;;21.50;40.50;;;;;;5054442;28;20289;-75
2022/05/06 02:18:52;;;;;;;;;;;21.60;40.60;;;;;;5069973;28;19909;-76
2022/05/06 02:21:18;;;;;;;;;;;21.50;40.50;;;;;;5054491;28;19916;-75
2022/05/06 02:23:43;;;;;;;;;;;21.50;40.50;;;;;;5070281;28;20392;-75
2022/05/06 02:26:08;;;;;;;;;;;21.50;40.60;;;;;;5069884;28;19913;-76
2022/05/06 02:28:34;;;;;;;;;;;21.50;40.50;;;;;;5054591;28;20003;-76
2022/05/06 02:33:44;;;;;;;;;;;21.40;40.40;;;;;;5067904;28;20424;-76
2022/05/06 02:36:11;;;;;;;;;;;21.50;40.60;;;;;;5036190;28;20095;-76
2022/05/06 02:38:36;;;;;;;;;;;21.50;40.60;;;;;;5069942;28;19916;-76
2022/05/06 02:41:02;;;;;;;;;;;21.50;40.50;;;;;;5069508;28;19962;-75
2022/05/06 02:43:27;;;;;;;;;;;21.50;40.60;;;;;;5036261;28;20426;-75
2022/05/06 02:45:53;;;;;;;;;;;21.50;40.60;;;;;;5069220;28;20396;-76
2022/05/06 02:48:19;;;;;;;;;;;21.40;40.50;;;;;;5064188;28;19956;-76
2022/05/06 02:50:44;;;;;;;;;;;21.50;40.60;;;;;;5034237;28;19913;-75
2022/05/06 02:53:10;;;;;;;;;;;21.50;40.60;;;;;;5032538;28;19996;-75
2022/05/06 02:55:36;;;;;;;;;;;21.50;40.60;;;;;;5032914;28;20277;-76
2022/05/06 02:58:01;;;;;;;;;;;21.50;40.60;;;;;;5015907;28;20284;-75
2022/05/06 03:00:28;;;;;;;;;;;21.50;40.50;;;;;;5016020;28;19959;-76
2022/05/06 03:02:55;;;;;;;;;;;21.40;40.50;;;;;;5016441;28;20004;-76
2022/05/06 03:05:20;;;;;;;;;;;21.40;40.50;;;;;;5016285;28;20400;-76
2022/05/06 03:07:46;;;;;;;;;;;21.40;40.50;;;;;;5017364;28;19978;-76
2022/05/06 03:10:11;;;;;;;;;;;21.40;40.50;;;;;;5035709;28;20380;-76
2022/05/06 03:12:37;;;;;;;;;;;21.40;40.40;;;;;;5069032;28;19908;-76
2022/05/06 03:15:03;;;;;;;;;;;21.40;40.50;;;;;;5068611;28;19917;-76
2022/05/06 03:17:29;;;;;;;;;;;21.40;40.50;;;;;;5068728;28;20292;-76
2022/05/06 03:19:55;;;;;;;;;;;21.40;40.50;;;;;;5052112;28;19909;-75
2022/05/06 03:22:21;;;;;;;;;;;21.40;40.60;;;;;;5052560;28;20332;-76
2022/05/06 03:24:47;;;;;;;;;;;21.40;40.50;;;;;;5053399;28;19917;-76
2022/05/06 03:29:57;;;;;;;;;;;21.40;40.50;;;;;;5018004;28;19955;-76
2022/05/06 03:32:23;;;;;;;;;;;21.40;40.50;;;;;;5015791;28;20305;-76
2022/05/06 03:34:49;;;;;;;;;;;21.40;40.50;;;;;;5015582;28;20012;-76
2022/05/06 03:37:15;;;;;;;;;;;21.40;40.50;;;;;;5015458;28;19928;-76
2022/05/06 03:39:40;;;;;;;;;;;21.40;40.50;;;;;;5032558;28;19912;-76
2022/05/06 03:42:06;;;;;;;;;;;21.30;40.50;;;;;;5052881;28;19913;-75
2022/05/06 03:44:31;;;;;;;;;;;21.30;40.50;;;;;;5052966;28;19986;-76
2022/05/06 03:46:57;;;;;;;;;;;21.30;40.50;;;;;;5068419;28;20062;-76
2022/05/06 03:49:22;;;;;;;;;;;21.30;40.50;;;;;;5051486;28;19913;-75
2022/05/06 03:51:47;;;;;;;;;;;21.30;40.50;;;;;;5068374;28;19999;-75
2022/05/06 03:54:13;;;;;;;;;;;21.30;40.60;;;;;;5068109;28;19913;-76
2022/05/06 03:56:38;;;;;;;;;;;21.30;40.50;;;;;;5050994;28;20293;-76
2022/05/06 03:59:04;;;;;;;;;;;21.30;41.20;;;;;;5062548;28;20287;-76
2022/05/06 04:01:30;;;;;;;;;;;21.30;40.50;;;;;;5032542;28;20444;-75
2022/05/06 04:03:56;;;;;;;;;;;21.30;40.60;;;;;;5032669;28;19921;-76
2022/05/06 04:06:21;;;;;;;;;;;21.30;40.50;;;;;;5015043;28;20000;-75
2022/05/06 04:08:46;;;;;;;;;;;21.30;40.50;;;;;;5042896;28;19938;-75
2022/05/06 04:11:13;;;;;;;;;;;21.30;40.60;;;;;;5034139;28;19915;-75
2022/05/06 04:13:38;;;;;;;;;;;21.30;40.60;;;;;;5051163;28;20314;-76
2022/05/06 04:16:04;;;;;;;;;;;21.30;40.60;;;;;;5067410;28;19940;-75
2022/05/06 04:18:30;;;;;;;;;;;21.20;40.50;;;;;;5050496;28;19909;-76
2022/05/06 04:23:39;;;;;;;;;;;21.20;40.50;;;;;;5052678;28;20359;-75
2022/05/06 04:26:09;;;;;;;;;;;21.20;40.60;;;;;;5050732;28;19909;-75
2022/05/06 04:28:34;;;;;;;;;;;21.20;40.60;;;;;;5067225;28;19912;-75
2022/05/06 04:31:00;;;;;;;;;;;21.20;40.60;;;;;;5050493;28;19916;-75
2022/05/06 04:33:26;;;;;;;;;;;21.20;40.60;;;;;;5050993;28;19912;-76
2022/05/06 04:35:51;;;;;;;;;;;21.30;40.70;;;;;;5050780;28;19948;-76
2022/05/06 04:38:16;;;;;;;;;;;21.20;40.60;;;;;;5052046;28;19929;-75
2022/05/06 04:40:42;;;;;;;;;;;21.20;40.60;;;;;;5050476;28;19962;-76
2022/05/06 04:43:07;;;;;;;;;;;21.20;40.70;;;;;;5034204;28;20385;-76
2022/05/06 04:45:36;;;;;;;;;;;21.20;40.70;;;;;;5052025;28;20079;-76
2022/05/06 04:48:02;;;;;;;;;;;21.20;40.70;;;;;;5064938;28;19909;-76
2022/05/06 04:50:27;;;;;;;;;;;21.10;40.70;;;;;;4998025;28;19920;-75
2022/05/06 04:52:53;;;;;;;;;;;21.10;40.60;;;;;;5014240;28;20125;-76
2022/05/06 04:55:18;;;;;;;;;;;21.10;40.60;;;;;;5014169;28;19956;-75
2022/05/06 04:57:44;;;;;;;;;;;21.10;40.60;;;;;;5013986;28;19917;-75
2022/05/06 05:00:09;;;;;;;;;;;21.10;40.80;;;;;;4997769;28;19972;-75
2022/05/06 05:02:35;;;;;;;;;;;21.10;40.80;;;;;;4997804;28;20015;-75
2022/05/06 05:05:00;;;;;;;;;;;21.00;40.80;;;;;;5014006;28;19925;-76
2022/05/06 05:07:26;;;;;;;;;;;21.00;40.90;;;;;;5014178;28;19914;-75
2022/05/06 05:09:51;;;;;;;;;;;20.90;41.00;;;;;;5013047;28;19909;-76
2022/05/06 05:12:17;;;;;;;;;;;20.80;41.10;;;;;;5047046;28;20381;-76
2022/05/06 05:14:43;;;;;;;;;;;20.80;41.20;;;;;;5030261;28;19913;-76
2022/05/06 05:17:09;;;;;;;;;;;20.80;41.20;;;;;;5047098;28;19982;-77
2022/05/06 05:19:35;;;;;;;;;;;20.80;41.20;;;;;;5030629;28;19948;-76
2022/05/06 05:22:00;;;;;;;;;;;20.80;41.20;;;;;;5030641;28;19963;-76
2022/05/06 05:24:26;;;;;;;;;;;20.80;41.80;;;;;;5031871;28;19913;-76
2022/05/06 05:26:54;;;;;;;;;;;20.80;41.20;;;;;;5047108;28;19917;-76
2022/05/06 05:29:19;;;;;;;;;;;20.80;41.20;;;;;;5013574;28;19915;-76
2022/05/06 05:31:44;;;;;;;;;;;20.70;41.30;;;;;;5035633;28;20232;-76
2022/05/06 05:34:10;;;;;;;;;;;20.80;41.40;;;;;;5017876;28;19917;-75
2022/05/06 05:36:35;;;;;;;;;;;20.70;41.40;;;;;;5034182;28;19971;-75
2022/05/06 05:39:01;;;;;;;;;;;20.80;41.30;;;;;;5020826;28;19919;-75
2022/05/06 05:41:26;;;;;;;;;;;20.80;41.30;;;;;;5054970;28;19936;-76
2022/05/06 05:49:21;;;;;;;;;;;20.80;41.20;;;;;;5056191;28;19917;-76
2022/05/06 05:51:47;;;;;;;;;;;20.80;41.30;;;;;;5072010;28;20022;-77
2022/05/06 05:54:12;;;;;;;;;;;20.80;41.30;;;;;;5054826;28;20357;-77
2022/05/06 05:56:38;;;;;;;;;;;20.80;41.30;;;;;;5055352;28;19916;-76
2022/05/06 05:59:03;;;;;;;;;;;20.80;41.30;;;;;;5038691;28;19913;-76
2022/05/06 06:01:29;;;;;;;;;;;20.90;41.20;;;;;;5072310;28;19920;-76
2022/05/06 06:03:55;;;;;;;;;;;20.90;41.10;;;;;;5069255;28;20373;-76
2022/05/06 06:06:20;;;;;;;;;;;20.80;41.10;;;;;;5069165;28;19959;-76
2022/05/06 06:08:46;;;;;;;;;;;20.80;41.30;;;;;;5068562;28;19913;-76
2022/05/06 06:11:11;;;;;;;;;;;20.80;41.30;;;;;;5033355;28;20268;-76
2022/05/06 06:13:36;;;;;;;;;;;20.80;41.30;;;;;;5067131;28;19996;-76
2022/05/06 06:16:02;;;;;;;;;;;20.80;41.30;;;;;;5066315;28;19975;-76
2022/05/06 06:18:28;;;;;;;;;;;20.80;41.30;;;;;;5033487;28;19913;-76
2022/05/06 06:20:54;;;;;;;;;;;20.80;41.30;;;;;;5033251;28;20304;-76
2022/05/06 06:23:20;;;;;;;;;;;20.80;41.10;;;;;;5049970;28;19959;-76
2022/05/06 06:25:46;;;;;;;;;;;20.80;41.10;;;;;;5034574;28;20531;-76
2022/05/06 06:28:11;;;;;;;;;;;20.90;41.20;;;;;;5066567;28;20008;-76
2022/05/06 06:30:37;;;;;;;;;;;20.90;41.10;;;;;;5034421;28;20008;-75
2022/05/06 06:33:03;;;;;;;;;;;20.90;41.00;;;;;;5066547;28;19975;-76
2022/05/06 06:35:28;;;;;;;;;;;21.00;41.10;;;;;;5034412;28;19913;-75
2022/05/06 06:37:54;;;;;;;;;;;20.90;40.90;;;;;;5066312;28;19971;-75
2022/05/06 06:40:19;;;;;;;;;;;20.90;41.00;;;;;;5066194;28;19920;-76
2022/05/06 06:42:46;;;;;;;;;;;20.90;41.10;;;;;;5033158;28;19910;-76
2022/05/06 06:45:11;;;;;;;;;;;20.80;41.20;;;;;;5065696;28;20253;-76
2022/05/06 06:47:37;;;;;;;;;;;20.80;41.40;;;;;;5034338;28;19909;-76
2022/05/06 06:50:03;;;;;;;;;;;20.70;41.30;;;;;;5046069;28;20285;-76
2022/05/06 06:52:28;;;;;;;;;;;20.70;41.40;;;;;;5013020;28;19913;-76
2022/05/06 06:54:54;;;;;;;;;;;20.70;41.50;;;;;;5013326;28;19971;-76
2022/05/06 06:57:19;;;;;;;;;;;20.70;41.40;;;;;;5012529;28;19913;-76
2022/05/06 06:59:45;;;;;;;;;;;20.70;41.50;;;;;;5029074;28;20365;-77
2022/05/06 07:02:10;;;;;;;;;;;20.70;41.60;;;;;;5012775;28;20283;-77
2022/05/06 07:04:35;;;;;;;;;;;20.60;41.50;;;;;;5023836;28;19931;-76
2022/05/06 07:12:46;;;;;;;;;;;20.60;41.60;;;;;;4984275;28;19973;-76
2022/05/06 07:15:12;;;;;;;;;;;20.60;41.60;;;;;;5002300;28;20008;-76
2022/05/06 07:17:37;;;;;;;;;;;20.60;41.60;;;;;;5053536;28;19990;-77
2022/05/06 07:20:03;;;;;;;;;;;20.70;41.70;;;;;;5068990;28;20375;-76
2022/05/06 07:22:28;;;;;;;;;;;20.70;41.60;;;;;;5068822;28;20292;-76
2022/05/06 07:24:54;;;;;;;;;;;20.70;41.50;;;;;;5068591;28;19963;-76
2022/05/06 07:27:21;;;;;;;;;;;20.70;41.40;;;;;;5052194;28;19909;-76
2022/05/06 07:29:46;;;;;;;;;;;20.80;41.40;;;;;;5033154;28;20369;-76
2022/05/06 07:32:12;;;;;;;;;;;20.70;41.40;;;;;;5015466;28;19931;-75
2022/05/06 07:34:37;;;;;;;;;;;20.70;41.50;;;;;;5015306;28;19913;-76
2022/05/06 07:37:03;;;;;;;;;;;20.80;41.40;;;;;;5033045;28;19913;-76
2022/05/06 07:39:28;;;;;;;;;;;20.80;41.30;;;;;;5048842;28;19974;-76
2022/05/06 07:41:54;;;;;;;;;;;20.80;41.30;;;;;;5051397;28;19965;-76
2022/05/06 07:44:19;;;;;;;;;;;20.90;41.30;;;;;;5068424;28;19935;-77
2022/05/06 07:46:45;;;;;;;;;;;20.90;41.30;;;;;;5035268;28;19909;-76
2022/05/06 07:49:10;;;;;;;;;;;20.90;41.20;;;;;;5052935;28;20007;-76
2022/05/06 07:51:36;;;;;;;;;;;20.90;41.10;;;;;;5053059;28;20277;-76
2022/05/06 07:54:02;;;;;;;;;;;20.90;41.10;;;;;;5051408;28;19955;-76
2022/05/06 07:56:30;;;;;;;;;;;20.90;41.20;;;;;;5052331;28;20364;-76
2022/05/06 07:58:59;;;;;;;;;;;20.90;41.20;;;;;;5052687;28;19944;-77
2022/05/06 08:06:53;;;;;;;;;;;21.00;41.30;;;;;;5065759;28;20284;-76
2022/05/06 08:09:20;;;;;;;;;;;20.90;41.30;;;;;;5051152;28;19924;-75
2022/05/06 08:11:46;;;;;;;;;;;20.90;41.50;;;;;;5067516;28;19909;-76
2022/05/06 08:14:12;;;;;;;;;;;20.90;41.60;;;;;;5067391;28;20000;-76
2022/05/06 08:16:38;;;;;;;;;;;20.90;41.50;;;;;;5031147;28;19948;-76
2022/05/06 08:19:03;;;;;;;;;;;20.90;41.60;;;;;;5014570;28;19948;-75
2022/05/06 08:21:29;;;;;;;;;;;20.80;41.60;;;;;;5014489;28;19923;-75
2022/05/06 08:23:54;;;;;;;;;;;20.80;41.70;;;;;;5033746;28;19995;-76
2022/05/06 08:26:20;;;;;;;;;;;20.80;41.80;;;;;;5034258;28;19959;-75
2022/05/06 08:28:45;;;;;;;;;;;20.80;41.80;;;;;;4999835;28;19920;-76
2022/05/06 08:31:11;;;;;;;;;;;20.80;41.90;;;;;;4998929;28;19917;-76
2022/05/06 08:33:36;;;;;;;;;;;20.80;41.80;;;;;;5016036;28;19976;-76
2022/05/06 08:36:02;;;;;;;;;;;20.80;41.90;;;;;;4999876;28;19909;-76
2022/05/06 08:38:27;;;;;;;;;;;20.80;42.00;;;;;;5023771;28;20311;-77
2022/05/06 08:40:53;;;;;;;;;;;20.80;42.00;;;;;;5035705;28;20312;-77
2022/05/06 08:43:19;;;;;;;;;;;20.80;42.10;;;;;;5069232;28;19908;-76
2022/05/06 08:51:13;;;;;;;;;;;20.80;42.20;;;;;;5018293;28;19916;-77
2022/05/06 08:53:40;;;;;;;;;;;20.80;42.20;;;;;;5016364;28;19928;-76
2022/05/06 08:56:05;;;;;;;;;;;20.80;42.20;;;;;;5015619;28;20349;-76
2022/05/06 08:58:34;;;;;;;;;;;20.80;42.20;;;;;;5000008;28;19923;-76
2022/05/06 09:01:00;;;;;;;;;;;20.80;42.30;;;;;;4999777;28;20016;-76
2022/05/06 09:03:25;;;;;;;;;;;20.80;42.30;;;;;;4999645;28;20323;-77
2022/05/06 09:05:51;;;;;;;;;;;20.80;42.30;;;;;;5004517;28;19933;-76
2022/05/06 09:08:17;;;;;;;;;;;20.80;42.40;;;;;;5028648;28;19962;-76
2022/05/06 09:10:43;;;;;;;;;;;20.80;42.40;;;;;;5075841;28;19908;-76
2022/05/06 09:13:08;;;;;;;;;;;20.90;42.30;;;;;;5075397;28;19915;-76
2022/05/06 09:18:19;;;;;;;;;;;20.90;42.20;;;;;;5073574;28;19919;-76
2022/05/06 09:20:45;;;;;;;;;;;20.90;42.30;;;;;;5075755;28;19956;-75
2022/05/06 09:23:24;;;;;;;;;;;20.90;42.40;;;;;;5060196;28;20435;-76
2022/05/06 09:25:51;;;;;;;;;;;20.90;42.30;;;;;;5075163;28;19909;-76
2022/05/06 09:28:23;;;;;;;;;;;21.00;42.40;;;;;;5074885;28;19916;-76
2022/05/06 09:30:59;;;;;;;;;;;21.00;42.20;;;;;;5059191;28;20202;-76
2022/05/06 09:33:25;;;;;;;;;;;21.00;42.20;;;;;;5041803;28;19923;-76
2022/05/06 09:35:51;;;;;;;;;;;21.00;42.20;;;;;;5057258;28;19909;-76
2022/05/06 09:38:16;;;;;;;;;;;21.00;42.20;;;;;;5069253;28;19939;-76
2022/05/06 09:40:42;;;;;;;;;;;21.00;42.20;;;;;;5074324;28;19959;-76
2022/05/06 09:43:07;;;;;;;;;;;21.10;42.30;;;;;;5057949;28;19916;-75
2022/05/06 09:45:33;;;;;;;;;;;21.00;42.20;;;;;;5075045;28;20375;-75
2022/05/06 09:47:59;;;;;;;;;;;21.00;42.20;;;;;;5042279;28;20418;-76
2022/05/06 09:50:35;;;;;;;;;;;21.10;42.20;;;;;;5075542;28;19921;-75
2022/05/06 09:53:01;;;;;;;;;;;21.10;42.20;;;;;;5075569;28;19943;-77
2022/05/06 09:55:28;;;;;;;;;;;21.20;42.20;;;;;;5075849;28;19909;-76
2022/05/06 09:57:54;;;;;;;;;;;21.10;42.20;;;;;;5074765;28;20354;-76
2022/05/06 10:00:19;;;;;;;;;;;21.10;42.20;;;;;;5058390;28;19917;-76
2022/05/06 10:02:45;;;;;;;;;;;21.20;42.20;;;;;;5075503;28;19915;-76
2022/05/06 10:05:10;;;;;;;;;;;21.20;42.30;;;;;;5075662;28;19920;-76
2022/05/06 10:07:35;;;;;;;;;;;21.20;42.20;;;;;;5075288;28;19951;-76
2022/05/06 10:10:07;;;;;;;;;;;21.20;42.20;;;;;;5075584;28;19919;-75
2022/05/06 10:12:37;;;;;;;;;;;21.20;42.10;;;;;;5075122;28;19909;-77
2022/05/06 10:15:07;;;;;;;;;;;21.30;42.30;;;;;;5056269;28;19996;-76
2022/05/06 10:17:49;;;;;;;;;;;21.30;42.30;;;;;;5019138;28;20027;-76
2022/05/06 10:20:33;;;;;;;;;;;21.30;42.30;;;;;;5035736;28;19913;-75
2022/05/06 10:23:02;;;;;;;;;;;21.30;42.20;;;;;;5036970;28;19932;-76
2022/05/06 10:25:47;;;;;;;;;;;21.30;42.20;;;;;;5035604;28;19910;-75
2022/05/06 10:34:23;;;;;;;;;;;21.40;42.10;;;;;;5017747;28;19931;-76
2022/05/06 10:36:49;;;;;;;;;;;21.40;42.10;;;;;;5049454;28;19946;-76
2022/05/06 10:39:24;;;;;;;;;;;21.40;42.10;;;;;;5046824;28;20053;-76
2022/05/06 10:42:14;;;;;;;;;;;21.40;42.10;;;;;;5052758;28;20094;-76
2022/05/06 10:44:41;;;;;;;;;;;21.40;42.10;;;;;;5046504;28;19989;-75
2022/05/06 10:47:13;;;;;;;;;;;21.40;42.20;;;;;;5070145;28;19998;-76
2022/05/06 10:49:38;;;;;;;;;;;21.40;42.20;;;;;;5039786;28;19909;-76
2022/05/06 10:52:20;;;;;;;;;;;21.40;42.30;;;;;;5035015;28;19920;-76
2022/05/06 10:54:49;;;;;;;;;;;21.40;42.40;;;;;;5035031;28;19909;-76
2022/05/06 10:57:15;;;;;;;;;;;21.40;42.40;;;;;;5034379;28;19999;-76
2022/05/06 10:59:47;;;;;;;;;;;21.40;42.40;;;;;;5034509;28;19968;-76
2022/05/06 11:02:13;;;;;;;;;;;21.40;42.50;;;;;;5036584;28;19920;-76
2022/05/06 11:04:38;;;;;;;;;;;21.40;42.50;;;;;;5049781;28;19978;-76
2022/05/06 11:07:11;;;;;;;;;;;21.40;42.50;;;;;;5049490;28;19955;-76
2022/05/06 11:09:36;;;;;;;;;;;21.40;42.40;;;;;;5051313;28;20346;-75
2022/05/06 11:12:02;;;;;;;;;;;21.50;42.40;;;;;;5052306;28;19909;-76
2022/05/06 11:14:27;;;;;;;;;;;21.50;42.50;;;;;;5068897;28;19916;-76
2022/05/06 11:16:53;;;;;;;;;;;21.50;42.50;;;;;;5069013;28;19935;-75
2022/05/06 11:19:38;;;;;;;;;;;21.50;42.50;;;;;;5069102;28;19913;-75
2022/05/06 11:22:07;;;;;;;;;;;21.50;42.50;;;;;;5052940;28;19978;-75
2022/05/06 11:24:33;;;;;;;;;;;21.50;42.40;;;;;;5068767;28;20398;-76
2022/05/06 11:27:11;;;;;;;;;;;21.60;42.50;;;;;;5053649;28;20008;-76
2022/05/06 11:30:06;;;;;;;;;;;21.60;42.50;;;;;;5068402;28;19913;-76
2022/05/06 11:32:31;;;;;;;;;;;21.60;42.40;;;;;;5022476;28;20011;-75
2022/05/06 11:34:57;;;;;;;;;;;21.60;42.40;;;;;;5068853;28;20402;-75
2022/05/06 11:37:22;;;;;;;;;;;21.60;42.50;;;;;;5034367;28;20342;-75
2022/05/06 11:39:49;;;;;;;;;;;21.60;42.50;;;;;;5033856;28;19916;-75
2022/05/06 11:42:21;;;;;;;;;;;21.70;42.50;;;;;;5034798;28;19913;-76
2022/05/06 11:47:41;;;;;;;;;;;21.60;42.50;;;;;;5066517;28;20004;-77
2022/05/06 11:50:06;;;;;;;;;;;21.70;42.70;;;;;;5051709;28;19940;-75
2022/05/06 11:52:32;;;;;;;;;;;21.70;42.60;;;;;;5051619;28;20387;-76
2022/05/06 11:54:58;;;;;;;;;;;21.70;42.50;;;;;;5035295;28;19916;-75
2022/05/06 11:57:23;;;;;;;;;;;21.70;42.40;;;;;;5068082;28;19966;-76
2022/05/06 11:59:48;;;;;;;;;;;21.80;42.40;;;;;;5068275;28;19943;-76
2022/05/06 12:02:14;;;;;;;;;;;21.80;42.40;;;;;;5053342;28;19923;-78
2022/05/06 12:04:39;;;;;;;;;;;21.80;42.40;;;;;;5053602;28;19921;-76
2022/05/06 12:07:05;;;;;;;;;;;21.80;42.40;;;;;;5053794;28;20336;-76
2022/05/06 12:09:40;;;;;;;;;;;21.90;42.50;;;;;;5054193;28;20344;-75
2022/05/06 12:12:07;;;;;;;;;;;21.90;42.40;;;;;;5033292;28;19945;-76
2022/05/06 12:14:33;;;;;;;;;;;21.90;42.50;;;;;;5033089;28;19920;-76
2022/05/06 12:16:59;;;;;;;;;;;21.90;42.40;;;;;;5050474;28;19913;-76
2022/05/06 12:19:33;;;;;;;;;;;21.90;42.40;;;;;;5034903;28;19910;-76
2022/05/06 12:22:02;;;;;;;;;;;22.00;42.30;;;;;;5035080;28;19967;-76
2022/05/06 12:24:40;;;;;;;;;;;22.00;42.30;;;;;;5034432;28;19916;-76
2022/05/06 12:27:09;;;;;;;;;;;22.00;42.30;;;;;;5033426;28;19909;-76
2022/05/06 12:29:35;;;;;;;;;;;22.00;42.20;;;;;;5032594;28;19913;-76
2022/05/06 12:32:01;;;;;;;;;;;22.10;42.40;;;;;;5017509;28;19931;-76
2022/05/06 12:34:27;;;;;;;;;;;22.10;42.30;;;;;;5033709;28;20004;-77
2022/05/06 12:36:53;;;;;;;;;;;22.10;42.30;;;;;;5033721;28;19927;-76
2022/05/06 12:39:20;;;;;;;;;;;22.10;42.30;;;;;;5017344;28;19919;-76
2022/05/06 12:41:45;;;;;;;;;;;22.20;42.30;;;;;;5035635;28;20374;-76
2022/05/06 12:44:15;;;;;;;;;;;22.20;42.20;;;;;;5018457;28;19916;-76
2022/05/06 12:46:41;;;;;;;;;;;22.20;42.10;;;;;;5034362;28;20243;-76
2022/05/06 12:51:50;;;;;;;;;;;22.30;42.20;;;;;;5034851;28;19916;-76
2022/05/06 12:54:16;;;;;;;;;;;22.30;42.10;;;;;;5017506;28;20269;-76
2022/05/06 12:56:41;;;;;;;;;;;22.40;42.20;;;;;;5017517;28;19917;-77
2022/05/06 12:59:07;;;;;;;;;;;22.40;42.20;;;;;;5035392;28;20000;-77
2022/05/06 13:01:32;;;;;;;;;;;22.40;42.10;;;;;;5017189;28;20285;-77
2022/05/06 13:03:58;;;;;;;;;;;22.40;42.00;;;;;;5017357;28;19939;-77
2022/05/06 13:06:23;;;;;;;;;;;22.50;42.20;;;;;;5017159;28;20027;-76
2022/05/06 13:08:49;;;;;;;;;;;22.40;41.90;;;;;;5037554;28;19913;-76
2022/05/06 13:11:14;;;;;;;;;;;22.50;42.10;;;;;;5071129;28;19920;-76
2022/05/06 13:13:41;;;;;;;;;;;22.50;42.10;;;;;;5054546;28;20462;-77
2022/05/06 13:16:07;;;;;;;;;;;22.50;42.20;;;;;;5052837;28;19989;-76
2022/05/06 13:18:32;;;;;;;;;;;22.50;42.20;;;;;;5070564;28;19967;-76
2022/05/06 13:20:57;;;;;;;;;;;22.50;42.20;;;;;;5070121;28;20300;-76
2022/05/06 13:23:23;;;;;;;;;;;22.50;42.20;;;;;;5070622;28;20015;-77
2022/05/06 13:25:52;;;;;;;;;;;22.50;42.10;;;;;;5037440;28;19928;-76
2022/05/06 13:28:17;;;;;;;;;;;22.60;42.10;;;;;;5053372;28;19909;-76
2022/05/06 13:30:43;;;;;;;;;;;22.60;42.10;;;;;;5070627;28;19916;-78
2022/05/06 13:33:09;;;;;;;;;;;22.60;42.00;;;;;;5055393;28;19908;-77
2022/05/06 13:35:34;;;;;;;;;;;22.60;42.00;;;;;;5070745;28;19917;-77
2022/05/06 13:38:00;;;;;;;;;;;22.60;42.00;;;;;;5050813;28;19942;-77
2022/05/06 13:40:25;;;;;;;;;;;22.60;42.00;;;;;;5070865;28;20003;-77
2022/05/06 13:42:51;;;;;;;;;;;22.70;42.70;;;;;;5053689;28;19908;-77
2022/05/06 13:45:16;;;;;;;;;;;22.60;41.90;;;;;;5069900;28;19969;-77
2022/05/06 13:47:42;;;;;;;;;;;22.60;42.00;;;;;;5070112;28;19915;-76
2022/05/06 13:50:07;;;;;;;;;;;22.60;42.00;;;;;;5069843;28;19912;-76
2022/05/06 13:52:33;;;;;;;;;;;22.60;42.10;;;;;;5040235;28;19944;-76
2022/05/06 13:54:59;;;;;;;;;;;22.70;42.10;;;;;;5073911;28;19927;-77
2022/05/06 14:00:10;;;;;;;;;;;22.70;42.10;;;;;;5057315;28;19920;-78
2022/05/06 14:02:36;;;;;;;;;;;22.60;42.00;;;;;;5071376;28;19913;-77
2022/05/06 14:05:01;;;;;;;;;;;22.70;42.10;;;;;;5057252;28;19925;-77
2022/05/06 14:07:26;;;;;;;;;;;22.60;42.10;;;;;;5055303;28;19919;-76
2022/05/06 14:09:52;;;;;;;;;;;22.60;42.10;;;;;;5073843;28;19909;-77
2022/05/06 14:12:18;;;;;;;;;;;22.70;42.30;;;;;;5058194;28;19908;-77
2022/05/06 14:14:43;;;;;;;;;;;22.70;42.10;;;;;;5023776;28;19916;-77
2022/05/06 14:17:09;;;;;;;;;;;22.70;42.10;;;;;;5023225;28;19943;-76
2022/05/06 14:19:34;;;;;;;;;;;22.70;42.10;;;;;;5039799;28;20106;-76
2022/05/06 14:22:00;;;;;;;;;;;22.70;42.00;;;;;;5040043;28;19913;-77
2022/05/06 14:24:25;;;;;;;;;;;22.70;41.90;;;;;;5057440;28;19940;-78
2022/05/06 14:26:50;;;;;;;;;;;22.70;42.10;;;;;;5039612;28;20300;-76
2022/05/06 14:29:16;;;;;;;;;;;22.70;42.20;;;;;;5039919;28;19940;-75
2022/05/06 14:31:41;;;;;;;;;;;22.70;42.20;;;;;;5023229;28;19909;-76
2022/05/06 14:34:07;;;;;;;;;;;22.70;42.10;;;;;;5023105;28;19919;-76
2022/05/06 14:36:32;;;;;;;;;;;22.70;42.20;;;;;;5039230;28;19966;-76
2022/05/06 14:38:58;;;;;;;;;;;22.70;42.20;;;;;;5039671;28;19916;-76
2022/05/06 14:41:23;;;;;;;;;;;22.70;42.10;;;;;;5057104;28;19909;-76
2022/05/06 14:43:49;;;;;;;;;;;22.70;42.10;;;;;;5039854;28;20050;-76
2022/05/06 14:46:14;;;;;;;;;;;22.70;42.20;;;;;;5039160;28;19927;-76
2022/05/06 14:48:40;;;;;;;;;;;22.80;42.30;;;;;;5039587;28;19963;-77
2022/05/06 14:51:05;;;;;;;;;;;22.70;42.20;;;;;;5057036;28;19923;-76
2022/05/06 14:53:31;;;;;;;;;;;22.80;42.30;;;;;;5022475;28;19913;-76
2022/05/06 14:55:56;;;;;;;;;;;22.70;42.10;;;;;;5057251;28;19913;-76
2022/05/06 14:58:22;;;;;;;;;;;22.70;42.50;;;;;;5039134;28;19943;-77
2022/05/06 15:00:47;;;;;;;;;;;22.80;42.00;;;;;;5039349;28;19908;-76
2022/05/06 15:03:13;;;;;;;;;;;22.70;42.10;;;;;;5021792;28;20233;-77